Home > Products > Valid Products > TAF

000
FTUS44 KTSA 011720
TAFRVS
TAF
KRVS 011720Z 0118/0218 20010G19KT P6SM SKC
     FM020200 19008G15KT P6SM BKN100
     FM021500 29006KT P6SM BKN150=



000
FTUS44 KTSA 011720
TAFMLC
TAF
KMLC 011720Z 0118/0218 19011G17KT P6SM SCT250
     FM020100 18010KT P6SM BKN120
     FM021500 22010G18KT P6SM BKN150=



000
FTUS44 KTSA 011720
TAFXNA
TAF
KXNA 011720Z 0118/0218 21009KT P6SM SKC
     FM020100 19011KT P6SM BKN100
     FM021500 25008KT P6SM BKN150=



000
FTUS44 KTSA 011720
TAFFYV
TAF
KFYV 011720Z 0118/0218 20009KT P6SM SKC
     FM020100 19011KT P6SM BKN100
     FM021500 25008KT P6SM BKN150=



000
FTUS44 KTSA 011720
TAFFSM
TAF
KFSM 011720Z 0118/0218 19008KT P6SM SKC
     FM020100 VRB03KT P6SM BKN100
     FM021500 27007KT P6SM BKN150=



000
FTUS44 KTSA 011720
TAFTUL
TAF
KTUL 011720Z 0118/0218 19014G22KT P6SM SCT150 BKN250
     FM020100 19011G18KT P6SM BKN100
     FM021500 29008KT P6SM BKN150=



000
FTUS44 KTSA 011720
TAFRVS
TAF
KRVS 011720Z 0118/0218 20010G19KT P6SM SKC
     FM020200 19008G15KT P6SM BKN100
     FM021500 29006KT P6SM BKN150=



000
FTUS44 KTSA 011720
TAFFYV
TAF
KFYV 011720Z 0118/0218 20009KT P6SM SKC
     FM020100 19011KT P6SM BKN100
     FM021500 25008KT P6SM BKN150=



000
FTUS44 KTSA 011720
TAFTUL
TAF
KTUL 011720Z 0118/0218 19014G22KT P6SM SCT150 BKN250
     FM020100 19011G18KT P6SM BKN100
     FM021500 29008KT P6SM BKN150=



000
FTUS44 KTSA 011720
TAFFSM
TAF
KFSM 011720Z 0118/0218 19008KT P6SM SKC
     FM020100 VRB03KT P6SM BKN100
     FM021500 27007KT P6SM BKN150=



000
FTUS44 KTSA 011720
TAFXNA
TAF
KXNA 011720Z 0118/0218 21009KT P6SM SKC
     FM020100 19011KT P6SM BKN100
     FM021500 25008KT P6SM BKN150=



000
FTUS44 KTSA 011720
TAFMLC
TAF
KMLC 011720Z 0118/0218 19011G17KT P6SM SCT250
     FM020100 18010KT P6SM BKN120
     FM021500 22010G18KT P6SM BKN150=



000
FTUS44 KTSA 011120
TAFFYV
TAF
KFYV 011120Z 0112/0212 22007KT P6SM BKN120
     FM011500 21012G18KT P6SM BKN150 PROB30 0121/0201 -TSRA BKN050CB
     FM020100 19011KT P6SM BKN100 PROB30 0201/0206 -TSRA BKN050CB=



000
FTUS44 KTSA 011120
TAFFYV
TAF
KFYV 011120Z 0112/0212 22007KT P6SM BKN120
     FM011500 21012G18KT P6SM BKN150 PROB30 0121/0201 -TSRA BKN050CB
     FM020100 19011KT P6SM BKN100 PROB30 0201/0206 -TSRA BKN050CB=



000
FTUS44 KTSA 011120
TAFXNA
TAF
KXNA 011120Z 0112/0212 22007KT P6SM BKN120
     FM011500 21012G20KT P6SM BKN150 PROB30 0121/0201 -TSRA BKN050CB
     FM020100 19011KT P6SM BKN100 PROB30 0201/0206 -TSRA BKN050CB=



000
FTUS44 KTSA 011120
TAFFSM
TAF
KFSM 011120Z 0112/0212 23006KT P6SM BKN150
     FM011500 24011KT P6SM SCT060 BKN150
     FM020100 19002KT P6SM BKN100=



000
FTUS44 KTSA 011120
TAFMLC
TAF
KMLC 011120Z 0112/0212 20008KT P6SM BKN200
     FM011500 20011G20KT P6SM BKN180
     FM020100 18010KT P6SM BKN120=



000
FTUS44 KTSA 011120
TAFRVS
TAF
KRVS 011120Z 0112/0212 20006KT P6SM BKN150
     FM011600 21012G19KT P6SM BKN150
     FM020200 19010G17KT P6SM BKN100=



000
FTUS44 KTSA 011120
TAFTUL
TAF
KTUL 011120Z 0112/0212 21011KT P6SM BKN150
     FM011600 21015G24KT P6SM BKN150
     FM020100 19014G20KT P6SM BKN100=



000
FTUS44 KTSA 011120
TAFRVS
TAF
KRVS 011120Z 0112/0212 20006KT P6SM BKN150
     FM011600 21012G19KT P6SM BKN150
     FM020200 19010G17KT P6SM BKN100=



000
FTUS44 KTSA 011120
TAFTUL
TAF
KTUL 011120Z 0112/0212 21011KT P6SM BKN150
     FM011600 21015G24KT P6SM BKN150
     FM020100 19014G20KT P6SM BKN100=



000
FTUS44 KTSA 011120
TAFXNA
TAF
KXNA 011120Z 0112/0212 22007KT P6SM BKN120
     FM011500 21012G20KT P6SM BKN150 PROB30 0121/0201 -TSRA BKN050CB
     FM020100 19011KT P6SM BKN100 PROB30 0201/0206 -TSRA BKN050CB=



000
FTUS44 KTSA 011120
TAFFSM
TAF
KFSM 011120Z 0112/0212 23006KT P6SM BKN150
     FM011500 24011KT P6SM SCT060 BKN150
     FM020100 19002KT P6SM BKN100=



000
FTUS44 KTSA 011120
TAFMLC
TAF
KMLC 011120Z 0112/0212 20008KT P6SM BKN200
     FM011500 20011G20KT P6SM BKN180
     FM020100 18010KT P6SM BKN120=



000
FTUS44 KTSA 010520
TAFMLC
TAF
KMLC 010520Z 0106/0206 18006KT P6SM SCT250
     FM011200 20008KT P6SM BKN200
     FM011500 20011G20KT P6SM BKN180
     FM020100 18010KT P6SM BKN120=



000
FTUS44 KTSA 010520
TAFFYV
TAF
KFYV 010520Z 0106/0206 20007KT P6SM BKN120
     FM011500 21012G18KT P6SM BKN150 PROB30 0121/0201 -TSRA BKN050CB
     FM020100 19011KT P6SM BKN100 PROB30 0201/0206 -TSRA BKN050CB=



000
FTUS44 KTSA 010520
TAFXNA
TAF
KXNA 010520Z 0106/0206 20007KT P6SM BKN120
     FM011500 21012G20KT P6SM BKN150 PROB30 0121/0201 -TSRA BKN050CB
     FM020100 19011KT P6SM BKN100 PROB30 0201/0206 -TSRA BKN050CB=



000
FTUS44 KTSA 010520
TAFTUL
TAF
KTUL 010520Z 0106/0206 19009KT P6SM BKN200
     FM011200 20011KT P6SM BKN150
     FM011600 21015G24KT P6SM BKN150
     FM020100 19014G20KT P6SM BKN100=



000
FTUS44 KTSA 010520
TAFFYV
TAF
KFYV 010520Z 0106/0206 20007KT P6SM BKN120
     FM011500 21012G18KT P6SM BKN150 PROB30 0121/0201 -TSRA BKN050CB
     FM020100 19011KT P6SM BKN100 PROB30 0201/0206 -TSRA BKN050CB=



000
FTUS44 KTSA 010520
TAFTUL
TAF
KTUL 010520Z 0106/0206 19009KT P6SM BKN200
     FM011200 20011KT P6SM BKN150
     FM011600 21015G24KT P6SM BKN150
     FM020100 19014G20KT P6SM BKN100=



000
FTUS44 KTSA 010520
TAFFSM
TAF
KFSM 010520Z 0106/0206 20006KT P6SM SCT200
     FM011200 20008KT P6SM BKN150
     FM011500 24011KT P6SM SCT060 BKN150
     FM020100 19002KT P6SM BKN100=



000
FTUS44 KTSA 010520
TAFRVS
TAF
KRVS 010520Z 0106/0206 19006KT P6SM BKN200
     FM011200 20008KT P6SM BKN150
     FM011600 21012G19KT P6SM BKN150
     FM020200 19010G17KT P6SM BKN100=



000
FTUS44 KTSA 010520
TAFFSM
TAF
KFSM 010520Z 0106/0206 20006KT P6SM SCT200
     FM011200 20008KT P6SM BKN150
     FM011500 24011KT P6SM SCT060 BKN150
     FM020100 19002KT P6SM BKN100=



000
FTUS44 KTSA 010520
TAFRVS
TAF
KRVS 010520Z 0106/0206 19006KT P6SM BKN200
     FM011200 20008KT P6SM BKN150
     FM011600 21012G19KT P6SM BKN150
     FM020200 19010G17KT P6SM BKN100=



000
FTUS44 KTSA 010520
TAFMLC
TAF
KMLC 010520Z 0106/0206 18006KT P6SM SCT250
     FM011200 20008KT P6SM BKN200
     FM011500 20011G20KT P6SM BKN180
     FM020100 18010KT P6SM BKN120=



000
FTUS44 KTSA 010520
TAFXNA
TAF
KXNA 010520Z 0106/0206 20007KT P6SM BKN120
     FM011500 21012G20KT P6SM BKN150 PROB30 0121/0201 -TSRA BKN050CB
     FM020100 19011KT P6SM BKN100 PROB30 0201/0206 -TSRA BKN050CB=



000
FTUS44 KTSA 302337
TAFTUL
TAF
KTUL 302337Z 0100/0124 20008KT P6SM SCT080 BKN250
     FM010900 20011KT P6SM BKN150
     FM011600 21013G21KT P6SM BKN150=



000
FTUS44 KTSA 302337
TAFFYV
TAF
KFYV 302337Z 0100/0124 24007KT P6SM FEW250
     FM010200 19004KT P6SM SCT250
     FM010900 20008KT P6SM BKN150
     FM011500 21012G19KT P6SM FEW050 BKN150=



000
FTUS44 KTSA 302337
TAFMLC
TAF
KMLC 302337Z 0100/0124 18005KT P6SM SCT250
     FM011200 20008KT P6SM BKN150
     FM011500 20011G20KT P6SM BKN150=



000
FTUS44 KTSA 302337
TAFXNA
TAF
KXNA 302337Z 0100/0124 23006KT P6SM FEW250
     FM010200 19003KT P6SM SCT250
     FM010800 20008KT P6SM BKN150
     FM011500 21012G20KT P6SM FEW050 BKN100=



000
FTUS44 KTSA 302337
TAFRVS
TAF
KRVS 302337Z 0100/0124 19006KT P6SM SCT080 BKN250
     FM010900 20008KT P6SM BKN150
     FM011600 21012G19KT P6SM BKN150=



000
FTUS44 KTSA 302337
TAFFSM
TAF
KFSM 302337Z 0100/0124 23006KT P6SM FEW250
     FM010800 20008KT P6SM BKN150
     FM011500 24011KT P6SM SCT060 BKN150=



000
FTUS44 KTSA 301720
TAFXNA
TAF
KXNA 301720Z 3018/0118 23006KT P6SM SKC
     FM010100 23003KT P6SM SKC
     FM011500 23012KT P6SM BKN100=



000
FTUS44 KTSA 301720
TAFFYV
TAF
KFYV 301720Z 3018/0118 VRB03KT P6SM SKC
     FM010100 22004KT P6SM FEW250
     FM011500 23012KT P6SM BKN100=



000
FTUS44 KTSA 301720
TAFMLC
TAF
KMLC 301720Z 3018/0118 VRB05KT P6SM SKC
     FM010100 17004KT P6SM SKC
     FM011400 20010G18KT P6SM BKN250=



000
FTUS44 KTSA 301720
TAFTUL
TAF
KTUL 301720Z 3018/0118 28010KT P6SM SCT250
     FM010100 16009KT P6SM FEW250
     FM011400 21010G17KT P6SM BKN250=



000
FTUS44 KTSA 301720
TAFFSM
TAF
KFSM 301720Z 3018/0118 27006KT P6SM SKC
     FM011500 25009KT P6SM SCT100 BKN250=



000
FTUS44 KTSA 301720
TAFRVS
TAF
KRVS 301720Z 3018/0118 23005KT P6SM SKC
     FM010100 16004KT P6SM FEW250
     FM011400 21012KT P6SM BKN250=



000
FTUS44 KTSA 301720
TAFXNA
TAF
KXNA 301720Z 3018/0118 23006KT P6SM SKC
     FM010100 23003KT P6SM SKC
     FM011500 23012KT P6SM BKN100=



000
FTUS44 KTSA 301720
TAFRVS
TAF
KRVS 301720Z 3018/0118 23005KT P6SM SKC
     FM010100 16004KT P6SM FEW250
     FM011400 21012KT P6SM BKN250=



000
FTUS44 KTSA 301720
TAFTUL
TAF
KTUL 301720Z 3018/0118 28010KT P6SM SCT250
     FM010100 16009KT P6SM FEW250
     FM011400 21010G17KT P6SM BKN250=



000
FTUS44 KTSA 301720
TAFFSM
TAF
KFSM 301720Z 3018/0118 27006KT P6SM SKC
     FM011500 25009KT P6SM SCT100 BKN250=



000
FTUS44 KTSA 301123
TAFTUL
TAF
KTUL 301123Z 3012/0112 VRB03KT P6SM SCT250
     FM301600 22005KT P6SM SCT250
     FM010100 16009KT P6SM FEW250=



000
FTUS44 KTSA 301123
TAFRVS
TAF
KRVS 301123Z 3012/0112 VRB03KT P6SM SCT250
     FM301600 19004KT P6SM SCT250
     FM010100 16004KT P6SM FEW250=



000
FTUS44 KTSA 301123
TAFFYV
TAF
KFYV 301123Z 3012/0112 VRB03KT P6SM SCT250
     FM301500 28007KT P6SM SKC
     FM010100 22004KT P6SM FEW250=



000
FTUS44 KTSA 301123
TAFMLC
TAF
KMLC 301123Z 3012/0112 20005KT P6SM SCT200
     FM301500 23006KT P6SM SKC
     FM010100 17004KT P6SM SKC=



000
FTUS44 KTSA 301123
TAFXNA
TAF
KXNA 301123Z 3012/0112 VRB03KT P6SM SCT250
     FM301500 27006KT P6SM SKC
     FM010100 23003KT P6SM SKC=



000
FTUS44 KTSA 301123
TAFRVS
TAF
KRVS 301123Z 3012/0112 VRB03KT P6SM SCT250
     FM301600 19004KT P6SM SCT250
     FM010100 16004KT P6SM FEW250=



000
FTUS44 KTSA 301123
TAFTUL
TAF
KTUL 301123Z 3012/0112 VRB03KT P6SM SCT250
     FM301600 22005KT P6SM SCT250
     FM010100 16009KT P6SM FEW250=



000
FTUS44 KTSA 301123
TAFFYV
TAF
KFYV 301123Z 3012/0112 VRB03KT P6SM SCT250
     FM301500 28007KT P6SM SKC
     FM010100 22004KT P6SM FEW250=



000
FTUS44 KTSA 301123
TAFMLC
TAF
KMLC 301123Z 3012/0112 20005KT P6SM SCT200
     FM301500 23006KT P6SM SKC
     FM010100 17004KT P6SM SKC=



000
FTUS44 KTSA 301123
TAFXNA
TAF
KXNA 301123Z 3012/0112 VRB03KT P6SM SCT250
     FM301500 27006KT P6SM SKC
     FM010100 23003KT P6SM SKC=



000
FTUS44 KTSA 301123
TAFFSM
TAF
KFSM 301123Z 3012/0112 VRB03KT P6SM SCT250
     FM301600 26006KT P6SM SKC=



000
FTUS44 KTSA 301123
TAFFSM
TAF
KFSM 301123Z 3012/0112 VRB03KT P6SM SCT250
     FM301600 26006KT P6SM SKC=



000
FTUS44 KTSA 300520
TAFFYV
TAF
KFYV 300520Z 3006/0106 VRB03KT P6SM SCT250
     FM301500 28007KT P6SM SKC
     FM010100 22004KT P6SM FEW250=



000
FTUS44 KTSA 300520
TAFRVS
TAF
KRVS 300520Z 3006/0106 VRB03KT P6SM SCT250
     FM301600 19004KT P6SM SKC
     FM010100 16004KT P6SM FEW250=



000
FTUS44 KTSA 300520
TAFXNA
TAF
KXNA 300520Z 3006/0106 VRB03KT P6SM SCT250
     FM301500 27006KT P6SM SKC
     FM010100 23003KT P6SM SKC=



000
FTUS44 KTSA 300520
TAFFSM
TAF
KFSM 300520Z 3006/0106 VRB03KT P6SM SCT250
     FM301600 26006KT P6SM SKC=



000
FTUS44 KTSA 300520
TAFTUL
TAF
KTUL 300520Z 3006/0106 VRB03KT P6SM SCT250
     FM301600 22005KT P6SM SCT250
     FM010100 16009KT P6SM FEW250=



000
FTUS44 KTSA 300520
TAFMLC
TAF
KMLC 300520Z 3006/0106 20005KT P6SM SCT200
     FM301500 23006KT P6SM SKC
     FM010100 17004KT P6SM SKC=



000
FTUS44 KTSA 300226 AAA
TAFMLC
TAF AMD
KMLC 300226Z 3002/3024 20005KT P6SM VCTS SCT100CB BKN150
     FM301500 23006KT P6SM SKC=



000
FTUS44 KTSA 292332
TAFTUL
TAF
KTUL 292332Z 3000/3024 VRB03KT P6SM SCT250
     FM301600 22005KT P6SM SCT250=



000
FTUS44 KTSA 292332
TAFFSM
TAF
KFSM 292332Z 3000/3024 VRB03KT P6SM SCT250
     FM300600 03003KT P6SM SKC
     FM301600 29006KT P6SM SKC=



000
FTUS44 KTSA 292332
TAFRVS
TAF
KRVS 292332Z 3000/3024 VRB03KT P6SM SCT250
     FM301600 19004KT P6SM SKC=



000
FTUS44 KTSA 292332
TAFFYV
TAF
KFYV 292332Z 3000/3024 VRB03KT P6SM SCT250
     FM301500 28007KT P6SM SKC=



000
FTUS44 KTSA 292332
TAFMLC
TAF
KMLC 292332Z 3000/3024 35005KT P6SM VCTS BKN060 BKN080CB
     FM300200 VRB03KT P6SM SCT250
     FM301600 23006KT P6SM SKC=



000
FTUS44 KTSA 292332
TAFXNA
TAF
KXNA 292332Z 3000/3024 VRB03KT P6SM SCT250
     FM301500 26006KT P6SM SKC=



000
FTUS44 KTSA 291720
TAFTUL
TAF
KTUL 291720Z 2918/3018 36006KT P6SM SCT250
     FM300300 VRB03KT P6SM SKC
     FM301400 22005KT P6SM SKC=



000
FTUS44 KTSA 291720
TAFTUL
TAF
KTUL 291720Z 2918/3018 36006KT P6SM SCT250
     FM300300 VRB03KT P6SM SKC
     FM301400 22005KT P6SM SKC=



000
FTUS44 KTSA 291720
TAFFSM
TAF
KFSM 291720Z 2918/3018 29010KT P6SM SCT250
     FM300300 VRB03KT P6SM SCT250=



000
FTUS44 KTSA 291720
TAFMLC
TAF
KMLC 291720Z 2918/3018 23008KT P6SM BKN250
     FM292000 27007KT P6SM VCTS SCT050CB BKN250
     FM300100 VRB03KT P6SM SCT250
     FM301400 21004KT P6SM SKC=



000
FTUS44 KTSA 291720
TAFXNA
TAF
KXNA 291720Z 2918/3018 29007KT P6SM SCT250
     FM300100 00000KT P6SM SKC
     FM301400 27004KT P6SM SKC=



000
FTUS44 KTSA 291720
TAFRVS
TAF
KRVS 291720Z 2918/3018 36005KT P6SM SCT250
     FM300100 00000KT P6SM SKC
     FM301400 20004KT P6SM SKC=



000
FTUS44 KTSA 291720
TAFFYV
TAF
KFYV 291720Z 2918/3018 29009KT P6SM SCT250
     FM300100 00000KT P6SM SKC
     FM301400 27004KT P6SM SKC=



000
FTUS44 KTSA 291120
TAFXNA
TAF
KXNA 291120Z 2912/3012 VRB06KT P6SM SCT250
     FM300100 00000KT P6SM SKC=



000
FTUS44 KTSA 291120
TAFFSM
TAF
KFSM 291120Z 2912/3012 27009KT P6SM SCT250 PROB30 2923/3003 TSRA
      BKN050CB
     FM300300 VRB03KT P6SM SCT250=



000
FTUS44 KTSA 291120
TAFTUL
TAF
KTUL 291120Z 2912/3012 VRB06KT P6SM SCT250
     FM291400 35006KT P6SM FEW250=



000
FTUS44 KTSA 291120
TAFMLC
TAF
KMLC 291120Z 2912/3012 22003KT P6SM BKN100 BKN250
     FM291400 23009KT P6SM SCT250 PROB30 2921/3003 TSRA BKN050CB=



000
FTUS44 KTSA 291120
TAFFYV
TAF
KFYV 291120Z 2912/3012 26007KT P6SM SCT250
     FM300100 00000KT P6SM SKC=



000
FTUS44 KTSA 291120
TAFRVS
TAF
KRVS 291120Z 2912/3012 00000KT P6SM SCT250
     FM291400 36005KT P6SM FEW250=



000
FTUS44 KTSA 290520
TAFTUL
TAF
KTUL 290520Z 2906/3006 20011KT P6SM BKN100 BKN250
     FM290900 VRB06KT P6SM SCT250
     FM291400 35006KT P6SM FEW250=



000
FTUS44 KTSA 290520
TAFMLC
TAF
KMLC 290520Z 2906/3006 19006KT P6SM FEW250
     FM290800 22003KT P6SM BKN100 BKN250
     FM291400 23009KT P6SM SCT250 PROB30 2921/3003 TS BKN050CB=



000
FTUS44 KTSA 290520
TAFRVS
TAF
KRVS 290520Z 2906/3006 20011KT P6SM BKN100 BKN250
     FM290900 00000KT P6SM SCT250
     FM291400 36005KT P6SM FEW250=



000
FTUS44 KTSA 290520
TAFFYV
TAF
KFYV 290520Z 2906/3006 21007KT P6SM BKN100 BKN250
     FM291100 26007KT P6SM SCT250
     FM300100 00000KT P6SM SKC=



000
FTUS44 KTSA 290520
TAFTUL
TAF
KTUL 290520Z 2906/3006 20011KT P6SM BKN100 BKN250
     FM290900 VRB06KT P6SM SCT250
     FM291400 35006KT P6SM FEW250=



000
FTUS44 KTSA 290520
TAFRVS
TAF
KRVS 290520Z 2906/3006 20011KT P6SM BKN100 BKN250
     FM290900 00000KT P6SM SCT250
     FM291400 36005KT P6SM FEW250=



000
FTUS44 KTSA 290520
TAFXNA
TAF
KXNA 290520Z 2906/3006 21008KT P6SM BKN100 BKN250
     FM291000 VRB06KT P6SM SCT250
     FM300100 00000KT P6SM SKC=



000
FTUS44 KTSA 290520
TAFFSM
TAF
KFSM 290520Z 2906/3006 27006KT P6SM SKC
     FM290800 VRB03KT P6SM BKN100 BKN250
     FM291200 27009KT P6SM SCT250 PROB30 2923/3003 TS BKN050CB
     FM300300 VRB03KT P6SM SCT250=



000
FTUS44 KTSA 290520
TAFFYV
TAF
KFYV 290520Z 2906/3006 21007KT P6SM BKN100 BKN250
     FM291100 26007KT P6SM SCT250
     FM300100 00000KT P6SM SKC=



000
FTUS44 KTSA 290520
TAFXNA
TAF
KXNA 290520Z 2906/3006 21008KT P6SM BKN100 BKN250
     FM291000 VRB06KT P6SM SCT250
     FM300100 00000KT P6SM SKC=



000
FTUS44 KTSA 290520
TAFFSM
TAF
KFSM 290520Z 2906/3006 27006KT P6SM SKC
     FM290800 VRB03KT P6SM BKN100 BKN250
     FM291200 27009KT P6SM SCT250 PROB30 2923/3003 TS BKN050CB
     FM300300 VRB03KT P6SM SCT250=



000
FTUS44 KTSA 290520
TAFMLC
TAF
KMLC 290520Z 2906/3006 19006KT P6SM FEW250
     FM290800 22003KT P6SM BKN100 BKN250
     FM291400 23009KT P6SM SCT250 PROB30 2921/3003 TS BKN050CB=



000
FTUS44 KTSA 282320
TAFMLC
TAF
KMLC 282320Z 2900/2924 19006KT P6SM FEW250
     FM290800 22003KT P6SM BKN100 BKN250
     FM291400 25006KT P6SM SCT250=



000
FTUS44 KTSA 282320
TAFXNA
TAF
KXNA 282320Z 2900/2924 21008KT P6SM SCT250
     FM290400 22006KT P6SM BKN100 BKN250
     FM291000 29006KT P6SM SCT250=



000
FTUS44 KTSA 282320
TAFRVS
TAF
KRVS 282320Z 2900/2924 20011KT P6SM BKN100 BKN250
     FM290800 00000KT P6SM BKN250
     FM291400 36005KT P6SM SCT250=



000
FTUS44 KTSA 282320
TAFTUL
TAF
KTUL 282320Z 2900/2924 20011KT P6SM BKN100 BKN250
     FM290800 VRB06KT P6SM BKN250
     FM291400 35006KT P6SM SCT250=



000
FTUS44 KTSA 282320
TAFXNA
TAF
KXNA 282320Z 2900/2924 21008KT P6SM SCT250
     FM290400 22006KT P6SM BKN100 BKN250
     FM291000 29006KT P6SM SCT250=



000
FTUS44 KTSA 282320
TAFRVS
TAF
KRVS 282320Z 2900/2924 20011KT P6SM BKN100 BKN250
     FM290800 00000KT P6SM BKN250
     FM291400 36005KT P6SM SCT250=



000
FTUS44 KTSA 282320
TAFFSM
TAF
KFSM 282320Z 2900/2924 27006KT P6SM SKC
     FM290400 VRB03KT P6SM BKN100 BKN250
     FM291200 27006KT P6SM SCT250=



000
FTUS44 KTSA 282320
TAFTUL
TAF
KTUL 282320Z 2900/2924 20011KT P6SM BKN100 BKN250
     FM290800 VRB06KT P6SM BKN250
     FM291400 35006KT P6SM SCT250=



000
FTUS44 KTSA 282320
TAFFYV
TAF
KFYV 282320Z 2900/2924 21007KT P6SM SCT250
     FM290400 21006KT P6SM BKN100 BKN250
     FM291000 28006KT P6SM SCT250=



000
FTUS44 KTSA 282320
TAFFYV
TAF
KFYV 282320Z 2900/2924 21007KT P6SM SCT250
     FM290400 21006KT P6SM BKN100 BKN250
     FM291000 28006KT P6SM SCT250=



000
FTUS44 KTSA 282320
TAFFSM
TAF
KFSM 282320Z 2900/2924 27006KT P6SM SKC
     FM290400 VRB03KT P6SM BKN100 BKN250
     FM291200 27006KT P6SM SCT250=



000
FTUS44 KTSA 282320
TAFMLC
TAF
KMLC 282320Z 2900/2924 19006KT P6SM FEW250
     FM290800 22003KT P6SM BKN100 BKN250
     FM291400 25006KT P6SM SCT250=



000
FTUS44 KTSA 282158 AAA
TAFMLC
TAF AMD
KMLC 282158Z 2822/2918 19007G17KT P6SM SKC
     FM291400 25006KT P6SM SCT250=



000
FTUS44 KTSA 282158 AAA
TAFTUL
TAF AMD
KTUL 282158Z 2822/2918 21010G18KT P6SM FEW250
     FM290000 19009KT P6SM SCT250
     FM290900 VRB04KT P6SM BKN250
     FM291400 35006KT P6SM SCT250=



    US Dept of Commerce
    National Oceanic and Atmospheric Administration
    National Weather Service
    1325 East West Highway
    Silver Spring, MD 20910
    Page Author: NWS Internet Services Team
Disclaimer
Information Quality
Credits
Glossary
Privacy Policy
Freedom of Information Act (FOIA)
About Us
Career Opportunities